createdAt,value
2022-11-30T00:01:24.516Z,9.10
2022-11-30T00:03:56.615Z,9.06
2022-11-30T00:06:25.109Z,9.06
2022-11-30T00:08:56.733Z,9.08
2022-11-30T00:11:26.118Z,9.07
2022-11-30T00:13:53.436Z,9.07
2022-11-30T00:16:20.814Z,9.07
2022-11-30T00:18:47.757Z,8.98
2022-11-30T00:21:15.705Z,9.03
2022-11-30T00:23:45.380Z,9.01
2022-11-30T00:26:15.158Z,9.03
2022-11-30T00:28:43.091Z,9.00
2022-11-30T00:31:16.111Z,9.00
2022-11-30T00:33:43.611Z,8.99
2022-11-30T00:36:20.062Z,8.96
2022-11-30T00:38:48.158Z,8.98
2022-11-30T00:41:18.488Z,8.98
2022-11-30T00:43:45.629Z,8.97
2022-11-30T00:46:12.708Z,8.97
2022-11-30T00:48:40.731Z,8.97
2022-11-30T00:51:09.981Z,8.97
2022-11-30T00:53:37.574Z,8.94
2022-11-30T00:56:04.788Z,8.93
2022-11-30T00:58:31.622Z,8.96
2022-11-30T01:00:58.562Z,8.95
2022-11-30T01:03:25.552Z,8.92
2022-11-30T01:05:52.346Z,8.86
2022-11-30T01:08:19.212Z,8.90
2022-11-30T01:10:47.559Z,8.89
2022-11-30T01:13:14.953Z,8.91
2022-11-30T01:15:44.111Z,8.93
2022-11-30T01:18:11.586Z,8.90
2022-11-30T01:20:43.321Z,8.90
2022-11-30T01:23:11.116Z,8.92
2022-11-30T01:25:39.822Z,8.76
2022-11-30T01:28:07.210Z,8.98
2022-11-30T01:30:34.101Z,8.88
2022-11-30T01:33:04.914Z,8.92
2022-11-30T01:35:31.837Z,8.87
2022-11-30T01:37:58.635Z,8.88
2022-11-30T01:40:25.415Z,8.84
2022-11-30T01:42:52.221Z,8.81
2022-11-30T01:45:19.036Z,8.84
2022-11-30T01:47:53.575Z,8.86
2022-11-30T01:50:32.763Z,8.89
2022-11-30T01:52:59.759Z,8.89
2022-11-30T01:55:42.880Z,8.88
2022-11-30T01:58:11.769Z,8.92
2022-11-30T02:00:43.608Z,8.90
2022-11-30T02:03:34.622Z,8.86
2022-11-30T02:06:01.460Z,8.86
2022-11-30T02:08:28.947Z,8.87
2022-11-30T02:11:02.719Z,8.82
2022-11-30T02:13:54.408Z,8.84
2022-11-30T02:17:05.923Z,8.84
2022-11-30T02:20:12.880Z,8.87
2022-11-30T02:23:02.942Z,8.87
2022-11-30T02:25:41.589Z,8.86
2022-11-30T02:28:54.505Z,8.87
2022-11-30T02:31:28.780Z,8.84
2022-11-30T02:33:58.070Z,8.82
2022-11-30T02:36:26.593Z,8.85
2022-11-30T02:38:53.484Z,8.81
2022-11-30T02:41:20.281Z,8.85
2022-11-30T02:43:47.711Z,8.84
2022-11-30T02:46:39.835Z,8.84
2022-11-30T02:49:22.476Z,8.84
2022-11-30T02:51:50.467Z,8.82
2022-11-30T02:54:18.961Z,8.82
2022-11-30T02:56:45.794Z,8.80
2022-11-30T02:59:12.645Z,8.85
2022-11-30T03:01:40.052Z,8.74
2022-11-30T03:04:06.884Z,8.84
2022-11-30T03:06:33.734Z,8.84
2022-11-30T03:09:00.480Z,8.85
2022-11-30T03:11:27.293Z,8.81
2022-11-30T03:13:54.491Z,8.83
2022-11-30T03:16:21.389Z,8.82
2022-11-30T03:18:48.193Z,8.84
2022-11-30T03:21:15.061Z,8.86
2022-11-30T03:23:41.864Z,8.87
2022-11-30T03:26:09.415Z,8.84
2022-11-30T03:28:37.231Z,8.74
2022-11-30T03:31:04.820Z,8.89
2022-11-30T03:33:31.919Z,8.87
2022-11-30T03:36:08.600Z,8.88
2022-11-30T03:38:35.550Z,8.88
2022-11-30T03:41:20.612Z,8.87
2022-11-30T03:43:47.809Z,8.81
2022-11-30T03:46:14.919Z,8.80
2022-11-30T03:48:41.820Z,8.80
2022-11-30T03:51:10.276Z,8.81
2022-11-30T03:53:37.884Z,8.79
2022-11-30T03:56:08.278Z,8.83
2022-11-30T03:58:35.310Z,8.83
2022-11-30T04:01:15.086Z,8.83
2022-11-30T04:03:42.536Z,8.82
2022-11-30T04:06:12.106Z,8.84
2022-11-30T04:08:39.928Z,8.87
2022-11-30T04:11:07.990Z,8.81
2022-11-30T04:13:37.655Z,8.86
2022-11-30T04:16:05.746Z,8.89
2022-11-30T04:18:34.430Z,8.87
2022-11-30T04:21:01.858Z,8.82
2022-11-30T04:23:36.571Z,8.83
2022-11-30T04:26:10.806Z,8.81
2022-11-30T04:28:37.608Z,8.88
2022-11-30T04:31:04.906Z,8.83
2022-11-30T04:33:31.949Z,8.84
2022-11-30T04:36:04.201Z,8.88
2022-11-30T04:38:31.837Z,8.83
2022-11-30T04:40:59.001Z,8.83
2022-11-30T04:43:25.949Z,8.83
2022-11-30T04:45:52.787Z,8.86
2022-11-30T04:48:20.233Z,8.81
2022-11-30T04:50:47.103Z,8.81
2022-11-30T04:53:13.905Z,8.85
2022-11-30T04:55:40.847Z,8.83
2022-11-30T04:58:07.912Z,8.86
2022-11-30T05:00:35.540Z,8.87
2022-11-30T05:03:02.526Z,8.85
2022-11-30T05:05:29.303Z,8.89
2022-11-30T05:07:58.628Z,8.84
2022-11-30T05:10:27.224Z,8.80
2022-11-30T05:12:54.216Z,8.86
2022-11-30T05:15:21.238Z,8.88
2022-11-30T05:17:48.050Z,8.89
2022-11-30T05:20:15.242Z,8.90
2022-11-30T05:22:42.050Z,8.88
2022-11-30T05:25:09.373Z,8.89
2022-11-30T05:27:36.668Z,8.89
2022-11-30T05:30:05.056Z,8.88
2022-11-30T05:32:31.935Z,8.86
2022-11-30T05:34:58.941Z,8.89
2022-11-30T05:37:25.987Z,8.88
2022-11-30T05:39:52.804Z,8.89
2022-11-30T05:42:19.708Z,8.88
2022-11-30T05:44:47.745Z,8.85
2022-11-30T05:47:15.446Z,8.84
2022-11-30T05:49:42.272Z,8.90
2022-11-30T05:52:09.103Z,8.82
2022-11-30T05:54:36.035Z,8.88
2022-11-30T05:57:02.861Z,8.86
2022-11-30T05:59:29.674Z,8.89
2022-11-30T06:01:56.706Z,8.90
2022-11-30T06:04:23.562Z,8.88
2022-11-30T06:06:52.136Z,8.89
2022-11-30T06:09:18.926Z,8.90
2022-11-30T06:11:45.696Z,8.88
2022-11-30T06:14:12.512Z,8.87
2022-11-30T06:16:39.958Z,8.86
2022-11-30T06:19:06.908Z,8.86
2022-11-30T06:21:34.008Z,8.87
2022-11-30T06:24:01.092Z,8.85
2022-11-30T06:26:27.872Z,8.86
2022-11-30T06:28:54.704Z,8.84
2022-11-30T06:31:21.600Z,8.83
2022-11-30T06:33:48.685Z,8.86
2022-11-30T06:36:22.743Z,8.83
2022-11-30T06:38:50.285Z,8.84
2022-11-30T06:41:17.828Z,8.83
2022-11-30T06:43:44.752Z,8.81
2022-11-30T06:46:11.659Z,8.79
2022-11-30T06:48:38.743Z,8.79
2022-11-30T06:51:10.453Z,8.78
2022-11-30T06:53:37.668Z,8.79
2022-11-30T06:56:10.675Z,8.79
2022-11-30T06:58:39.799Z,8.77
2022-11-30T07:01:14.363Z,8.74
2022-11-30T07:03:42.398Z,8.74
2022-11-30T07:06:12.418Z,8.72
2022-11-30T07:08:41.030Z,8.74
2022-11-30T07:11:08.793Z,8.72
2022-11-30T07:13:36.073Z,8.70
2022-11-30T07:16:12.456Z,8.69
2022-11-30T07:18:39.314Z,8.75
2022-11-30T07:21:06.904Z,8.75
2022-11-30T07:23:56.711Z,8.65
2022-11-30T07:26:25.324Z,8.76
2022-11-30T07:28:55.338Z,8.70
2022-11-30T07:31:40.468Z,8.75
2022-11-30T07:34:09.457Z,8.69
2022-11-30T07:36:37.032Z,8.59
2022-11-30T07:39:04.704Z,8.69
2022-11-30T07:41:31.780Z,8.69
2022-11-30T07:43:59.490Z,8.71
2022-11-30T07:46:26.679Z,8.69
2022-11-30T07:48:53.538Z,8.72
2022-11-30T07:51:22.514Z,8.71
2022-11-30T07:53:50.396Z,8.69
2022-11-30T07:56:19.950Z,8.70
2022-11-30T07:58:49.188Z,8.68
2022-11-30T08:01:22.367Z,8.70
2022-11-30T08:03:51.094Z,8.68
2022-11-30T08:06:21.471Z,8.68
2022-11-30T08:08:52.678Z,8.66
2022-11-30T08:11:23.420Z,8.68
2022-11-30T08:13:50.740Z,8.67
2022-11-30T08:16:21.944Z,8.68
2022-11-30T08:18:49.585Z,8.66
2022-11-30T08:21:20.217Z,8.66
2022-11-30T08:23:51.699Z,8.66
2022-11-30T08:26:22.214Z,8.67
2022-11-30T08:28:51.331Z,8.65
2022-11-30T08:31:28.760Z,8.63
2022-11-30T08:34:07.940Z,8.67
2022-11-30T08:36:35.470Z,8.65
2022-11-30T08:39:04.972Z,8.67
2022-11-30T08:41:34.722Z,8.67
2022-11-30T08:44:02.022Z,8.68
2022-11-30T08:49:24.399Z,8.68
2022-11-30T08:54:47.269Z,8.63
2022-11-30T08:57:20.190Z,8.68
2022-11-30T08:59:47.702Z,8.74
2022-11-30T09:02:17.843Z,8.72
2022-11-30T09:04:49.203Z,8.70
2022-11-30T09:07:16.359Z,8.73
2022-11-30T09:09:43.261Z,8.75
2022-11-30T09:12:10.122Z,8.74
2022-11-30T09:14:37.127Z,8.77
2022-11-30T09:17:04.275Z,8.77
2022-11-30T09:19:31.150Z,8.80
2022-11-30T09:21:58.008Z,8.78
2022-11-30T09:24:24.972Z,8.71
2022-11-30T09:26:55.680Z,8.72
2022-11-30T09:29:22.833Z,8.72
2022-11-30T09:31:49.776Z,8.76
2022-11-30T09:34:16.626Z,8.73
2022-11-30T09:36:43.487Z,8.67
2022-11-30T09:39:12.735Z,8.69
2022-11-30T09:42:00.701Z,8.71
2022-11-30T09:45:04.539Z,8.75
2022-11-30T09:48:38.333Z,8.79
2022-11-30T09:51:20.868Z,8.76
2022-11-30T09:53:58.841Z,8.72
2022-11-30T09:56:33.702Z,8.75
2022-11-30T09:59:08.408Z,8.81
2022-11-30T10:01:37.586Z,8.84
2022-11-30T10:04:05.898Z,8.77
2022-11-30T10:07:13.792Z,8.89
2022-11-30T10:10:23.812Z,8.89
2022-11-30T10:13:12.485Z,8.85
2022-11-30T10:16:24.695Z,8.85
2022-11-30T10:18:54.203Z,8.84
2022-11-30T10:21:27.966Z,8.86
2022-11-30T10:24:09.584Z,8.90
2022-11-30T10:26:38.611Z,8.91
2022-11-30T10:29:19.209Z,8.94
2022-11-30T10:31:51.179Z,8.97
2022-11-30T10:34:21.086Z,8.94
2022-11-30T10:37:17.347Z,8.93
2022-11-30T10:39:49.135Z,9.00
2022-11-30T10:42:34.488Z,9.03
2022-11-30T10:45:05.875Z,9.01
2022-11-30T10:47:37.159Z,9.03
2022-11-30T10:50:06.993Z,9.04
2022-11-30T10:52:53.836Z,9.07
2022-11-30T10:55:25.326Z,9.05
2022-11-30T10:58:05.317Z,9.01
2022-11-30T11:00:32.451Z,9.08
2022-11-30T11:02:59.548Z,9.12
2022-11-30T11:05:31.241Z,9.10
2022-11-30T11:08:22.565Z,9.12
2022-11-30T11:10:51.577Z,9.15
2022-11-30T11:13:41.460Z,9.18
2022-11-30T11:16:13.462Z,9.15
2022-11-30T11:18:57.739Z,9.20
2022-11-30T11:21:25.409Z,9.23
2022-11-30T11:23:56.015Z,9.24
2022-11-30T11:26:28.590Z,9.25
2022-11-30T11:28:59.518Z,9.24
2022-11-30T11:31:36.863Z,9.28
2022-11-30T11:34:06.300Z,9.29
2022-11-30T11:36:36.772Z,9.30
2022-11-30T11:39:24.896Z,9.28
2022-11-30T11:41:52.821Z,9.30
2022-11-30T11:44:23.007Z,9.33
2022-11-30T11:47:08.118Z,9.33
2022-11-30T11:49:37.629Z,9.34
2022-11-30T11:52:13.516Z,9.36
2022-11-30T11:54:58.340Z,9.35
2022-11-30T11:57:53.766Z,9.33
2022-11-30T12:00:24.937Z,9.36
2022-11-30T12:03:04.856Z,9.38
2022-11-30T12:06:01.245Z,9.31
2022-11-30T12:08:43.133Z,9.37
2022-11-30T12:11:20.061Z,9.37
2022-11-30T12:13:47.352Z,9.35
2022-11-30T12:16:30.918Z,9.36
2022-11-30T12:18:59.083Z,9.38
2022-11-30T12:21:44.558Z,9.39
2022-11-30T12:24:28.876Z,9.39
2022-11-30T12:27:16.930Z,9.39
2022-11-30T12:30:09.979Z,9.41
2022-11-30T12:32:55.388Z,9.44
2022-11-30T12:35:42.129Z,9.42
2022-11-30T12:38:26.367Z,9.43
2022-11-30T12:41:30.803Z,9.43
2022-11-30T12:44:28.994Z,9.38
2022-11-30T12:47:26.626Z,9.38
2022-11-30T12:50:43.747Z,9.39
2022-11-30T12:53:21.592Z,9.34
2022-11-30T12:55:56.265Z,9.45
2022-11-30T12:58:28.053Z,9.41
2022-11-30T13:01:33.439Z,9.43
2022-11-30T13:04:28.415Z,9.47
2022-11-30T13:07:04.718Z,9.47
2022-11-30T13:09:56.859Z,9.47
2022-11-30T13:12:37.970Z,9.46
2022-11-30T13:15:15.703Z,9.46
2022-11-30T13:17:44.882Z,9.48
2022-11-30T13:20:41.975Z,9.46
2022-11-30T13:23:35.938Z,9.45
2022-11-30T13:26:39.977Z,9.43
2022-11-30T13:29:35.081Z,9.44
2022-11-30T13:32:27.685Z,9.23
2022-11-30T13:35:29.336Z,9.48
2022-11-30T13:41:08.623Z,9.48
2022-11-30T13:43:44.019Z,9.50
2022-11-30T13:46:21.198Z,9.48
2022-11-30T13:48:48.870Z,9.49
2022-11-30T13:51:37.551Z,9.48
2022-11-30T13:54:46.092Z,9.49
2022-11-30T13:57:24.793Z,9.48
2022-11-30T13:59:57.158Z,9.48
2022-11-30T14:02:43.012Z,9.46
2022-11-30T14:05:18.921Z,9.44
2022-11-30T14:08:00.878Z,9.41
2022-11-30T14:10:39.193Z,9.40
2022-11-30T14:13:30.825Z,9.44
2022-11-30T14:16:01.142Z,9.41
2022-11-30T14:18:40.395Z,9.40
2022-11-30T14:21:25.171Z,9.41
2022-11-30T14:24:23.524Z,9.35
2022-11-30T14:26:51.735Z,9.42
2022-11-30T14:29:39.324Z,9.42
2022-11-30T14:32:16.512Z,9.42
2022-11-30T14:34:52.718Z,9.40
2022-11-30T14:37:29.297Z,9.43
2022-11-30T14:40:02.089Z,9.37
2022-11-30T14:42:31.784Z,9.39
2022-11-30T14:44:58.742Z,9.38
2022-11-30T14:47:35.374Z,9.35
2022-11-30T14:50:08.345Z,9.38
2022-11-30T14:52:55.447Z,9.40
2022-11-30T14:55:41.375Z,9.34
2022-11-30T14:58:49.611Z,9.40
2022-11-30T15:01:21.410Z,9.30
2022-11-30T15:03:51.779Z,9.28
2022-11-30T15:06:22.732Z,9.38
2022-11-30T15:08:54.430Z,9.37
2022-11-30T15:11:22.927Z,9.23
2022-11-30T15:13:56.309Z,9.35
2022-11-30T15:16:28.367Z,9.36
2022-11-30T15:18:57.633Z,9.37
2022-11-30T15:21:32.405Z,9.35
2022-11-30T15:24:02.562Z,9.38
2022-11-30T15:26:37.103Z,9.37
2022-11-30T15:29:06.025Z,9.37
2022-11-30T15:31:39.688Z,9.37
2022-11-30T15:34:17.120Z,9.39
2022-11-30T15:36:43.994Z,9.34
2022-11-30T15:39:23.892Z,9.35
2022-11-30T15:41:57.638Z,9.28
2022-11-30T15:44:33.362Z,9.35
2022-11-30T15:47:02.624Z,9.34
2022-11-30T15:49:31.774Z,9.35
2022-11-30T15:52:19.354Z,9.35
2022-11-30T15:55:03.335Z,9.33
2022-11-30T15:58:02.652Z,9.33
2022-11-30T16:00:29.821Z,9.31
2022-11-30T16:03:12.095Z,9.31
2022-11-30T16:05:40.395Z,9.28
2022-11-30T16:08:18.427Z,9.30
2022-11-30T16:10:45.529Z,9.30
2022-11-30T16:13:15.806Z,9.32
2022-11-30T16:15:49.266Z,9.31
2022-11-30T16:18:22.336Z,9.31
2022-11-30T16:20:53.526Z,9.19
2022-11-30T16:23:21.056Z,9.29
2022-11-30T16:25:50.036Z,9.29
2022-11-30T16:28:18.880Z,9.31
2022-11-30T16:30:46.782Z,9.25
2022-11-30T16:33:22.908Z,9.27
2022-11-30T16:35:59.332Z,9.28
2022-11-30T16:38:27.862Z,9.26
2022-11-30T16:40:55.855Z,9.28
2022-11-30T16:43:25.675Z,9.26
2022-11-30T16:45:52.560Z,9.25
2022-11-30T16:48:19.886Z,9.26
2022-11-30T16:50:47.092Z,9.22
2022-11-30T16:53:17.627Z,9.26
2022-11-30T16:55:44.728Z,9.23
2022-11-30T16:58:11.727Z,9.24
2022-11-30T17:00:40.241Z,9.25
2022-11-30T17:03:18.886Z,9.25
2022-11-30T17:05:45.690Z,9.25
2022-11-30T17:08:12.562Z,9.24
2022-11-30T17:10:39.681Z,9.22
2022-11-30T17:13:06.531Z,9.24
2022-11-30T17:15:33.333Z,9.23
2022-11-30T17:18:00.245Z,9.21
2022-11-30T17:20:27.672Z,9.21
2022-11-30T17:22:54.497Z,9.21
2022-11-30T17:25:23.780Z,9.20
2022-11-30T17:27:51.270Z,9.19
2022-11-30T17:30:21.224Z,9.23
2022-11-30T17:32:48.592Z,9.22
2022-11-30T17:35:15.596Z,9.16
2022-11-30T17:37:42.406Z,9.18
2022-11-30T17:40:13.080Z,9.17
2022-11-30T17:42:40.019Z,9.23
2022-11-30T17:45:07.548Z,9.21
2022-11-30T17:47:34.374Z,9.23
2022-11-30T17:50:01.287Z,9.20
2022-11-30T17:52:28.105Z,9.17
2022-11-30T17:54:55.000Z,9.16
2022-11-30T17:57:21.794Z,9.17
2022-11-30T17:59:48.596Z,9.14
2022-11-30T18:02:15.472Z,9.14
2022-11-30T18:04:42.327Z,9.09
2022-11-30T18:07:09.168Z,9.09
2022-11-30T18:09:42.175Z,9.11
2022-11-30T18:12:11.549Z,9.08
2022-11-30T18:14:38.460Z,9.09
2022-11-30T18:17:05.313Z,9.09
2022-11-30T18:19:32.252Z,9.06
2022-11-30T18:21:59.135Z,9.04
2022-11-30T18:24:26.170Z,9.05
2022-11-30T18:26:53.644Z,9.04
2022-11-30T18:29:20.919Z,9.00
2022-11-30T18:31:51.314Z,8.97
2022-11-30T18:34:18.262Z,8.98
2022-11-30T18:36:45.180Z,8.98
2022-11-30T18:39:12.130Z,8.97
2022-11-30T18:41:39.213Z,8.98
2022-11-30T18:44:06.225Z,8.98
2022-11-30T18:46:33.366Z,8.94
2022-11-30T18:49:01.570Z,8.97
2022-11-30T18:51:30.775Z,8.98
2022-11-30T18:54:00.520Z,8.83
2022-11-30T18:56:31.637Z,8.90
2022-11-30T18:59:02.684Z,8.91
2022-11-30T19:01:30.667Z,8.94
2022-11-30T19:04:00.637Z,8.90
2022-11-30T19:06:29.727Z,8.89
2022-11-30T19:08:57.130Z,8.88
2022-11-30T19:11:25.047Z,8.80
2022-11-30T19:13:59.926Z,8.81
2022-11-30T19:16:28.958Z,8.78
2022-11-30T19:18:59.569Z,8.78
2022-11-30T19:21:27.342Z,8.69
2022-11-30T19:23:54.683Z,8.78
2022-11-30T19:26:21.520Z,8.78
2022-11-30T19:28:48.345Z,8.78
2022-11-30T19:31:18.840Z,8.71
2022-11-30T19:33:49.669Z,8.74
2022-11-30T19:36:19.595Z,8.67
2022-11-30T19:38:47.097Z,8.70
2022-11-30T19:41:15.231Z,8.70
2022-11-30T19:43:47.769Z,8.68
2022-11-30T19:46:17.486Z,8.65
2022-11-30T19:48:45.167Z,8.63
2022-11-30T19:51:18.410Z,8.61
2022-11-30T19:53:46.061Z,8.57
2022-11-30T19:56:16.025Z,8.52
2022-11-30T19:58:45.388Z,8.49
2022-11-30T20:01:19.550Z,8.47
2022-11-30T20:03:46.462Z,8.45
2022-11-30T20:06:13.358Z,8.36
2022-11-30T20:08:40.559Z,8.17
2022-11-30T20:11:13.676Z,8.31
2022-11-30T20:13:41.722Z,8.29
2022-11-30T20:16:11.346Z,8.26
2022-11-30T20:18:42.729Z,8.29
2022-11-30T20:21:14.437Z,8.22
2022-11-30T20:23:42.878Z,8.21
2022-11-30T20:26:31.204Z,8.16
2022-11-30T20:29:00.384Z,8.11
2022-11-30T20:31:29.043Z,8.10
2022-11-30T20:33:55.900Z,8.11
2022-11-30T20:36:23.178Z,8.06
2022-11-30T20:38:50.165Z,8.03
2022-11-30T20:41:23.673Z,8.03
2022-11-30T20:43:51.346Z,8.02
2022-11-30T20:46:27.127Z,7.99
2022-11-30T20:48:56.552Z,7.96
2022-11-30T20:51:31.809Z,7.95
2022-11-30T20:54:02.207Z,7.91
2022-11-30T20:56:29.158Z,7.91
2022-11-30T20:58:56.188Z,7.88
2022-11-30T21:01:23.333Z,7.83
2022-11-30T21:03:50.236Z,7.89
2022-11-30T21:06:17.258Z,7.84
2022-11-30T21:08:44.305Z,7.84
2022-11-30T21:11:14.903Z,7.82
2022-11-30T21:13:46.680Z,7.82
2022-11-30T21:16:16.124Z,7.70
2022-11-30T21:18:45.311Z,7.80
2022-11-30T21:21:21.646Z,7.77
2022-11-30T21:23:50.342Z,7.75
2022-11-30T21:26:18.090Z,7.79
2022-11-30T21:28:47.090Z,7.76
2022-11-30T21:31:15.000Z,7.71
2022-11-30T21:33:44.551Z,7.72
2022-11-30T21:36:17.323Z,7.70
2022-11-30T21:38:44.170Z,7.59
2022-11-30T21:41:14.696Z,7.67
2022-11-30T21:43:42.215Z,7.69
2022-11-30T21:46:17.010Z,7.64
2022-11-30T21:48:46.825Z,7.73
2022-11-30T21:51:22.839Z,7.70
2022-11-30T21:53:53.376Z,7.62
2022-11-30T21:56:30.000Z,7.63
2022-11-30T21:58:57.711Z,7.58
2022-11-30T22:01:29.758Z,7.69
2022-11-30T22:03:59.252Z,7.69
2022-11-30T22:06:28.330Z,7.64
2022-11-30T22:09:07.601Z,7.60
2022-11-30T22:11:38.976Z,7.65
2022-11-30T22:14:07.316Z,7.71
2022-11-30T22:16:36.428Z,7.65
2022-11-30T22:19:05.510Z,7.65
2022-11-30T22:21:33.511Z,7.64
2022-11-30T22:24:07.071Z,7.62
2022-11-30T22:26:40.501Z,7.58
2022-11-30T22:29:16.064Z,7.57
2022-11-30T22:31:46.374Z,7.59
2022-11-30T22:34:13.988Z,7.55
2022-11-30T22:36:43.253Z,7.55
2022-11-30T22:39:13.703Z,7.51
2022-11-30T22:41:42.578Z,7.52
2022-11-30T22:44:18.430Z,7.54
2022-11-30T22:46:45.921Z,7.51
2022-11-30T22:49:20.352Z,7.48
2022-11-30T22:51:49.318Z,7.54
2022-11-30T22:54:16.632Z,7.51
2022-11-30T22:56:44.157Z,7.48
2022-11-30T22:59:12.949Z,7.39
2022-11-30T23:01:47.125Z,7.44
2022-11-30T23:04:20.047Z,7.46
2022-11-30T23:06:49.461Z,7.43
2022-11-30T23:09:20.611Z,7.44
2022-11-30T23:11:48.074Z,7.44
2022-11-30T23:14:16.203Z,7.42
2022-11-30T23:16:43.965Z,7.42
2022-11-30T23:19:12.699Z,7.43
2022-11-30T23:21:42.557Z,7.39
2022-11-30T23:24:15.807Z,7.42
2022-11-30T23:26:43.251Z,7.38
2022-11-30T23:29:16.608Z,7.40
2022-11-30T23:31:45.215Z,7.38
2022-11-30T23:34:18.033Z,7.36
2022-11-30T23:36:45.726Z,7.26
2022-11-30T23:39:16.553Z,7.34
2022-11-30T23:41:43.703Z,7.37
2022-11-30T23:44:11.386Z,7.39
2022-11-30T23:46:38.482Z,7.37
2022-11-30T23:49:05.537Z,7.40
2022-11-30T23:51:32.521Z,7.41
2022-11-30T23:53:59.406Z,7.32
2022-11-30T23:56:26.191Z,7.37
2022-11-30T23:58:53.245Z,7.38
